createdAt,value
2018-07-25T00:00:12.164Z,14.05
2018-07-25T00:02:46.739Z,14.35
2018-07-25T00:05:21.132Z,13.83
2018-07-25T00:07:55.667Z,15.05
2018-07-25T00:10:37.408Z,14.07
2018-07-25T00:13:13.409Z,25.90
2018-07-25T00:15:48.120Z,13.93
2018-07-25T00:18:24.158Z,17.07
2018-07-25T00:20:59.683Z,17.55
2018-07-25T00:23:34.397Z,18.75
2018-07-25T00:26:09.123Z,14.95
2018-07-25T00:28:43.872Z,12.10
2018-07-25T00:31:18.461Z,15.10
2018-07-25T00:33:52.903Z,17.17
2018-07-25T00:36:28.941Z,13.68
2018-07-25T00:39:04.248Z,19.37
2018-07-25T00:41:39.413Z,17.57
2018-07-25T00:44:14.066Z,16.00
2018-07-25T00:46:48.768Z,12.55
2018-07-25T00:49:23.639Z,13.10
2018-07-25T00:51:58.524Z,13.98
2018-07-25T00:54:33.347Z,13.03
2018-07-25T00:57:07.973Z,12.03
2018-07-25T00:59:43.215Z,14.30
2018-07-25T01:02:17.925Z,11.75
2018-07-25T01:04:52.735Z,13.32
2018-07-25T01:07:30.194Z,14.18
2018-07-25T01:10:05.355Z,13.72
2018-07-25T01:12:40.063Z,13.90
2018-07-25T01:15:15.458Z,14.33
2018-07-25T01:17:52.296Z,11.20
2018-07-25T01:20:27.033Z,13.75
2018-07-25T01:23:01.624Z,11.85
2018-07-25T01:25:36.294Z,10.55
2018-07-25T01:28:10.955Z,13.88
2018-07-25T01:30:48.901Z,12.28
2018-07-25T01:33:24.284Z,13.45
2018-07-25T01:36:02.239Z,11.78
2018-07-25T01:38:38.915Z,12.40
2018-07-25T01:41:14.101Z,12.00
2018-07-25T01:43:48.857Z,11.63
2018-07-25T01:46:24.287Z,12.10
2018-07-25T01:48:59.066Z,12.23
2018-07-25T01:51:33.921Z,12.30
2018-07-25T01:54:09.590Z,12.25
2018-07-25T01:56:44.306Z,12.73
2018-07-25T01:59:18.854Z,14.75
2018-07-25T02:01:55.086Z,13.50
2018-07-25T02:04:29.542Z,12.45
2018-07-25T02:07:04.173Z,15.50
2018-07-25T02:09:38.624Z,13.55
2018-07-25T02:12:14.880Z,21.02
2018-07-25T02:14:50.478Z,19.45
2018-07-25T02:17:25.979Z,15.05
2018-07-25T02:20:02.663Z,15.53
2018-07-25T02:22:38.004Z,14.73
2018-07-25T02:25:14.429Z,14.18
2018-07-25T02:27:49.220Z,13.43
2018-07-25T02:30:25.752Z,17.07
2018-07-25T02:33:00.285Z,22.40
2018-07-25T02:35:35.461Z,18.55
2018-07-25T02:38:11.319Z,17.40
2018-07-25T02:40:46.967Z,12.47
2018-07-25T02:43:22.686Z,18.27
2018-07-25T02:45:57.586Z,22.15
2018-07-25T02:48:32.282Z,14.05
2018-07-25T02:51:06.861Z,12.63
2018-07-25T02:53:41.632Z,14.60
2018-07-25T02:56:16.464Z,12.03
2018-07-25T02:58:51.138Z,12.53
2018-07-25T03:01:25.658Z,13.93
2018-07-25T03:04:02.140Z,10.82
2018-07-25T03:06:36.983Z,10.43
2018-07-25T03:09:12.068Z,11.78
2018-07-25T03:11:46.539Z,13.65
2018-07-25T03:14:22.144Z,14.30
2018-07-25T03:16:59.504Z,10.25
2018-07-25T03:19:34.556Z,13.68
2018-07-25T03:22:13.488Z,14.65
2018-07-25T03:24:47.927Z,13.43
2018-07-25T03:27:22.608Z,12.55
2018-07-25T03:29:59.076Z,12.88
2018-07-25T03:32:33.634Z,12.25
2018-07-25T03:35:08.143Z,12.85
2018-07-25T03:37:43.210Z,10.82
2018-07-25T03:40:17.648Z,13.10
2018-07-25T03:42:53.334Z,13.90
2018-07-25T03:45:29.195Z,11.80
2018-07-25T03:48:03.849Z,12.75
2018-07-25T03:50:39.588Z,12.00
2018-07-25T03:53:14.340Z,11.45
2018-07-25T03:55:48.952Z,10.43
2018-07-25T03:58:26.190Z,10.80
2018-07-25T04:01:01.522Z,12.82
2018-07-25T04:03:37.133Z,13.22
2018-07-25T04:06:11.751Z,11.50
2018-07-25T04:08:46.525Z,14.63
2018-07-25T04:11:21.253Z,11.68
2018-07-25T04:13:55.826Z,11.10
2018-07-25T04:16:31.763Z,11.85
2018-07-25T04:19:06.568Z,10.85
2018-07-25T04:21:42.110Z,12.63
2018-07-25T04:24:17.153Z,11.30
2018-07-25T04:26:54.398Z,15.13
2018-07-25T04:29:32.945Z,11.30
2018-07-25T04:32:07.729Z,19.10
2018-07-25T04:34:42.468Z,19.42
2018-07-25T04:37:17.072Z,14.30
2018-07-25T04:39:51.749Z,15.05
2018-07-25T04:42:26.793Z,12.85
2018-07-25T04:45:02.874Z,12.53
2018-07-25T04:47:38.386Z,13.68
2018-07-25T04:50:13.076Z,13.40
2018-07-25T04:52:49.183Z,10.40
2018-07-25T04:55:23.808Z,11.70
2018-07-25T04:57:58.385Z,10.30
2018-07-25T05:00:34.266Z,10.80
2018-07-25T05:03:12.887Z,11.65
2018-07-25T05:05:47.812Z,13.80
2018-07-25T05:08:22.757Z,14.25
2018-07-25T05:10:59.427Z,11.33
2018-07-25T05:13:34.213Z,11.30
2018-07-25T05:16:08.993Z,12.80
2018-07-25T05:18:45.374Z,15.40
2018-07-25T05:21:20.024Z,13.68
2018-07-25T05:23:55.604Z,13.30
2018-07-25T05:26:30.171Z,12.28
2018-07-25T05:29:05.483Z,12.30
2018-07-25T05:31:40.088Z,13.05
2018-07-25T05:34:14.734Z,13.00
2018-07-25T05:36:49.107Z,12.13
2018-07-25T05:39:23.645Z,12.40
2018-07-25T05:41:58.334Z,11.95
2018-07-25T05:44:32.979Z,12.45
2018-07-25T05:47:07.407Z,11.70
2018-07-25T05:49:41.955Z,13.22
2018-07-25T05:52:16.619Z,13.18
2018-07-25T05:54:51.942Z,12.23
2018-07-25T05:57:27.370Z,15.68
2018-07-25T06:00:01.889Z,14.28
2018-07-25T06:02:36.380Z,13.03
2018-07-25T06:05:11.113Z,13.98
2018-07-25T06:07:47.066Z,14.65
2018-07-25T06:10:21.775Z,22.52
2018-07-25T06:12:56.660Z,13.78
2018-07-25T06:15:31.134Z,16.00
2018-07-25T06:18:05.703Z,13.95
2018-07-25T06:20:40.479Z,12.50
2018-07-25T06:23:16.373Z,13.13
2018-07-25T06:25:53.377Z,11.83
2018-07-25T06:28:28.538Z,12.13
2018-07-25T06:31:03.280Z,12.65
2018-07-25T06:33:37.604Z,12.60
2018-07-25T06:36:12.180Z,10.78
2018-07-25T06:38:46.860Z,10.80
2018-07-25T06:41:21.370Z,10.65
2018-07-25T06:43:55.911Z,10.38
2018-07-25T06:46:30.472Z,10.98
2018-07-25T06:49:06.091Z,9.33
2018-07-25T06:51:40.599Z,9.95
2018-07-25T06:54:15.141Z,9.35
2018-07-25T06:56:49.566Z,9.65
2018-07-25T06:59:24.121Z,10.48
2018-07-25T07:01:58.791Z,9.55
2018-07-25T07:04:33.398Z,9.25
2018-07-25T07:07:08.885Z,10.65
2018-07-25T07:09:43.428Z,13.50
2018-07-25T07:12:18.012Z,16.10
2018-07-25T07:14:54.612Z,14.30
2018-07-25T07:17:29.152Z,10.20
2018-07-25T07:20:03.774Z,8.83
2018-07-25T07:22:39.416Z,9.85
2018-07-25T07:25:14.372Z,8.60
2018-07-25T07:27:49.007Z,7.90
2018-07-25T07:30:23.746Z,8.40
2018-07-25T07:32:58.282Z,10.58
2018-07-25T07:35:33.428Z,10.30
2018-07-25T07:38:08.127Z,8.35
2018-07-25T07:40:42.821Z,9.78
2018-07-25T07:43:17.481Z,8.53
2018-07-25T07:45:53.699Z,9.63
2018-07-25T07:48:28.425Z,9.98
2018-07-25T07:51:05.590Z,9.65
2018-07-25T07:53:40.198Z,11.30
2018-07-25T07:56:15.977Z,9.43
2018-07-25T07:58:50.524Z,8.33
2018-07-25T08:01:27.462Z,7.90
2018-07-25T08:04:01.937Z,8.90
2018-07-25T08:06:36.476Z,7.12
2018-07-25T08:09:12.792Z,9.28
2018-07-25T08:11:47.404Z,8.25
2018-07-25T08:14:25.588Z,9.50
2018-07-25T08:17:00.347Z,7.85
2018-07-25T08:19:34.951Z,8.35
2018-07-25T08:22:10.478Z,12.78
2018-07-25T08:24:45.197Z,8.90
2018-07-25T08:27:20.534Z,14.90
2018-07-25T08:29:55.640Z,15.05
2018-07-25T08:32:30.347Z,18.12
2018-07-25T08:35:05.157Z,11.35
2018-07-25T08:37:39.894Z,10.35
2018-07-25T08:40:14.704Z,8.68
2018-07-25T08:42:49.396Z,8.60
2018-07-25T08:45:24.110Z,8.48
2018-07-25T08:47:58.719Z,8.78
2018-07-25T08:50:34.072Z,8.83
2018-07-25T08:53:08.580Z,10.32
2018-07-25T08:55:43.100Z,8.98
2018-07-25T08:58:17.655Z,8.65
2018-07-25T09:00:52.261Z,8.90
2018-07-25T09:03:26.970Z,7.97
2018-07-25T09:06:02.845Z,8.50
2018-07-25T09:08:38.541Z,8.48
2018-07-25T09:11:13.026Z,8.15
2018-07-25T09:13:47.582Z,8.35
2018-07-25T09:16:22.107Z,8.25
2018-07-25T09:18:56.621Z,9.00
2018-07-25T09:21:31.382Z,9.13
2018-07-25T09:24:05.953Z,8.68
2018-07-25T09:26:40.369Z,9.10
2018-07-25T09:29:15.110Z,8.53
2018-07-25T09:31:49.797Z,9.03
2018-07-25T09:34:24.559Z,10.28
2018-07-25T09:36:59.114Z,11.40
2018-07-25T09:39:33.758Z,14.35
2018-07-25T09:42:08.450Z,9.88
2018-07-25T09:44:43.057Z,9.55
2018-07-25T09:47:17.801Z,8.10
2018-07-25T09:49:52.303Z,9.85
2018-07-25T09:52:27.063Z,8.10
2018-07-25T09:55:01.740Z,6.97
2018-07-25T09:57:36.550Z,7.37
2018-07-25T10:00:12.737Z,7.37
2018-07-25T10:02:47.385Z,7.85
2018-07-25T10:05:21.994Z,8.00
2018-07-25T10:07:56.687Z,6.87
2018-07-25T10:10:31.386Z,7.80
2018-07-25T10:13:08.106Z,9.30
2018-07-25T10:15:42.574Z,7.62
2018-07-25T10:18:18.011Z,7.70
2018-07-25T10:20:52.732Z,8.53
2018-07-25T10:23:27.333Z,6.75
2018-07-25T10:26:02.719Z,10.65
2018-07-25T10:28:37.564Z,6.30
2018-07-25T10:31:13.144Z,7.87
2018-07-25T10:33:47.912Z,6.70
2018-07-25T10:36:22.612Z,8.45
2018-07-25T10:38:57.456Z,6.45
2018-07-25T10:41:32.821Z,7.58
2018-07-25T10:44:08.003Z,9.05
2018-07-25T10:46:46.824Z,7.20
2018-07-25T10:49:22.028Z,10.98
2018-07-25T10:51:59.740Z,7.70
2018-07-25T10:54:34.392Z,12.78
2018-07-25T10:57:10.188Z,10.65
2018-07-25T10:59:44.947Z,9.28
2018-07-25T11:02:19.948Z,6.55
2018-07-25T11:04:55.316Z,6.50
2018-07-25T11:07:29.917Z,6.55
2018-07-25T11:10:05.884Z,6.50
2018-07-25T11:12:40.451Z,6.15
2018-07-25T11:15:15.492Z,5.70
2018-07-25T11:17:49.910Z,6.75
2018-07-25T11:20:24.567Z,6.28
2018-07-25T11:22:59.219Z,5.95
2018-07-25T11:25:34.330Z,5.57
2018-07-25T11:28:08.827Z,7.65
2018-07-25T11:30:43.495Z,5.87
2018-07-25T11:33:18.115Z,5.90
2018-07-25T11:35:52.638Z,8.10
2018-07-25T11:38:28.575Z,10.38
2018-07-25T11:41:03.159Z,7.42
2018-07-25T11:43:37.731Z,8.85
2018-07-25T11:46:12.287Z,7.33
2018-07-25T11:48:46.610Z,6.40
2018-07-25T11:51:22.159Z,7.50
2018-07-25T11:53:56.812Z,8.10
2018-07-25T11:56:31.569Z,6.65
2018-07-25T11:59:06.241Z,6.00
2018-07-25T12:01:40.863Z,6.97
2018-07-25T12:04:15.274Z,5.93
2018-07-25T12:06:49.914Z,6.90
2018-07-25T12:09:24.568Z,6.87
2018-07-25T12:11:59.834Z,7.17
2018-07-25T12:14:34.214Z,6.10
2018-07-25T12:17:09.048Z,7.83
2018-07-25T12:19:43.771Z,6.65
2018-07-25T12:22:18.416Z,6.15
2018-07-25T12:24:53.157Z,6.10
2018-07-25T12:27:27.840Z,7.65
2018-07-25T12:30:02.538Z,5.53
2018-07-25T12:32:37.203Z,5.35
2018-07-25T12:35:12.379Z,5.47
2018-07-25T12:37:46.856Z,5.77
2018-07-25T12:40:21.299Z,5.20
2018-07-25T12:42:55.895Z,6.07
2018-07-25T12:45:30.406Z,8.00
2018-07-25T12:48:05.056Z,9.00
2018-07-25T12:50:39.633Z,10.17
2018-07-25T12:53:14.320Z,8.83
2018-07-25T12:55:50.392Z,11.10
2018-07-25T12:58:24.682Z,6.30
2018-07-25T13:00:59.311Z,6.00
2018-07-25T13:03:33.916Z,5.07
2018-07-25T13:06:08.415Z,6.10
2018-07-25T13:08:43.217Z,5.97
2018-07-25T13:11:17.850Z,5.57
2018-07-25T13:13:52.320Z,4.90
2018-07-25T13:16:27.112Z,5.80
2018-07-25T13:19:02.578Z,6.20
2018-07-25T13:21:37.046Z,5.00
2018-07-25T13:24:11.742Z,4.85
2018-07-25T13:26:47.298Z,4.70
2018-07-25T13:29:22.059Z,4.70
2018-07-25T13:31:59.373Z,6.23
2018-07-25T13:34:33.535Z,4.67
2018-07-25T13:37:08.611Z,4.78
2018-07-25T13:39:43.249Z,6.80
2018-07-25T13:42:17.775Z,5.80
2018-07-25T13:44:53.126Z,5.60
2018-07-25T13:47:27.715Z,6.10
2018-07-25T13:50:02.515Z,5.00
2018-07-25T13:52:37.275Z,6.20
2018-07-25T13:55:11.712Z,8.27
2018-07-25T13:57:46.206Z,7.78
2018-07-25T14:00:20.914Z,12.50
2018-07-25T14:02:55.659Z,7.00
2018-07-25T14:05:30.873Z,6.55
2018-07-25T14:08:06.623Z,6.47
2018-07-25T14:10:41.094Z,6.90
2018-07-25T14:13:17.447Z,7.45
2018-07-25T14:15:52.824Z,6.77
2018-07-25T14:18:27.521Z,6.37
2018-07-25T14:21:01.855Z,6.15
2018-07-25T14:23:36.815Z,6.80
2018-07-25T14:26:11.165Z,6.43
2018-07-25T14:28:45.802Z,6.20
2018-07-25T14:31:20.418Z,5.83
2018-07-25T14:33:55.240Z,6.13
2018-07-25T14:36:30.007Z,4.90
2018-07-25T14:39:08.046Z,4.75
2018-07-25T14:41:42.543Z,3.80
2018-07-25T14:44:17.141Z,4.97
2018-07-25T14:46:51.960Z,6.00
2018-07-25T14:49:26.626Z,5.30
2018-07-25T14:52:01.226Z,5.30
2018-07-25T14:54:35.988Z,5.43
2018-07-25T14:57:10.725Z,6.83
2018-07-25T14:59:45.352Z,11.53
2018-07-25T15:02:23.867Z,7.60
2018-07-25T15:04:58.457Z,5.50
2018-07-25T15:07:32.885Z,6.78
2018-07-25T15:10:07.428Z,6.55
2018-07-25T15:12:42.896Z,5.00
2018-07-25T15:15:18.122Z,5.80
2018-07-25T15:17:54.216Z,6.08
2018-07-25T15:20:28.907Z,5.35
2018-07-25T15:23:03.636Z,5.70
2018-07-25T15:25:38.273Z,5.13
2018-07-25T15:28:12.969Z,5.23
2018-07-25T15:30:47.794Z,5.10
2018-07-25T15:33:22.439Z,4.87
2018-07-25T15:35:57.899Z,6.13
2018-07-25T15:38:32.658Z,5.33
2018-07-25T15:41:07.432Z,4.70
2018-07-25T15:43:42.543Z,5.97
2018-07-25T15:46:17.360Z,6.20
2018-07-25T15:48:51.843Z,4.50
2018-07-25T15:51:26.537Z,4.70
2018-07-25T15:54:01.505Z,5.50
2018-07-25T15:56:36.875Z,5.40
2018-07-25T15:59:12.301Z,7.33
2018-07-25T16:01:47.148Z,4.70
2018-07-25T16:04:21.832Z,6.57
2018-07-25T16:06:59.220Z,6.03
2018-07-25T16:09:34.114Z,5.80
2018-07-25T16:12:08.807Z,6.27
2018-07-25T16:14:44.174Z,6.03
2018-07-25T16:17:20.941Z,8.90
2018-07-25T16:19:58.320Z,11.80
2018-07-25T16:22:33.082Z,17.37
2018-07-25T16:25:07.980Z,7.85
2018-07-25T16:27:43.600Z,5.97
2018-07-25T16:30:18.263Z,9.03
2018-07-25T16:32:52.924Z,5.30
2018-07-25T16:35:27.690Z,4.40
2018-07-25T16:38:05.869Z,6.40
2018-07-25T16:40:40.750Z,5.10
2018-07-25T16:43:16.395Z,5.70
2018-07-25T16:45:51.789Z,5.00
2018-07-25T16:48:26.354Z,4.50
2018-07-25T16:51:01.271Z,6.00
2018-07-25T16:53:36.158Z,5.60
2018-07-25T16:56:11.045Z,4.87
2018-07-25T16:58:45.929Z,4.70
2018-07-25T17:01:20.860Z,4.50
2018-07-25T17:03:57.696Z,5.43
2018-07-25T17:06:36.081Z,4.83
2018-07-25T17:09:12.895Z,7.50
2018-07-25T17:11:47.548Z,4.80
2018-07-25T17:14:23.455Z,4.70
2018-07-25T17:16:59.598Z,5.73
2018-07-25T17:19:34.217Z,4.90
2018-07-25T17:22:08.931Z,6.27
2018-07-25T17:24:45.399Z,5.60
2018-07-25T17:27:20.159Z,5.90
2018-07-25T17:29:54.978Z,9.67
2018-07-25T17:32:30.490Z,22.03
2018-07-25T17:35:06.109Z,12.60
2018-07-25T17:37:40.636Z,12.97
2018-07-25T17:40:15.335Z,6.22
2018-07-25T17:42:50.950Z,6.70
2018-07-25T17:45:25.568Z,8.30
2018-07-25T17:48:00.304Z,5.85
2018-07-25T17:50:35.720Z,6.35
2018-07-25T17:53:11.484Z,8.05
2018-07-25T17:55:46.012Z,5.97
2018-07-25T17:58:22.014Z,5.40
2018-07-25T18:00:56.910Z,5.75
2018-07-25T18:03:31.580Z,6.00
2018-07-25T18:06:06.303Z,6.42
2018-07-25T18:08:41.075Z,5.17
2018-07-25T18:11:15.641Z,5.55
2018-07-25T18:13:55.766Z,5.22
2018-07-25T18:16:30.468Z,9.70
2018-07-25T18:19:05.243Z,6.60
2018-07-25T18:21:41.556Z,5.80
2018-07-25T18:24:16.232Z,5.05
2018-07-25T18:26:50.936Z,5.92
2018-07-25T18:29:25.637Z,5.35
2018-07-25T18:32:01.683Z,4.60
2018-07-25T18:34:36.278Z,4.50
2018-07-25T18:37:11.850Z,5.37
2018-07-25T18:39:46.605Z,5.28
2018-07-25T18:42:21.475Z,14.18
2018-07-25T18:44:56.402Z,16.07
2018-07-25T18:47:31.982Z,8.58
2018-07-25T18:50:08.210Z,6.12
2018-07-25T18:52:44.061Z,6.10
2018-07-25T18:55:18.740Z,5.95
2018-07-25T18:57:54.616Z,6.03
2018-07-25T19:00:29.994Z,5.72
2018-07-25T19:03:04.764Z,5.50
2018-07-25T19:05:39.486Z,6.28
2018-07-25T19:08:14.345Z,5.50
2018-07-25T19:10:49.066Z,4.75
2018-07-25T19:13:29.075Z,5.75
2018-07-25T19:16:04.743Z,7.10
2018-07-25T19:18:39.811Z,6.45
2018-07-25T19:21:15.109Z,5.45
2018-07-25T19:23:50.527Z,5.80
2018-07-25T19:26:25.252Z,6.33
2018-07-25T19:29:00.141Z,5.37
2018-07-25T19:31:35.738Z,6.05
2018-07-25T19:34:10.401Z,5.50
2018-07-25T19:36:47.743Z,6.30
2018-07-25T19:39:24.663Z,7.33
2018-07-25T19:41:59.466Z,6.50
2018-07-25T19:44:34.569Z,6.67
2018-07-25T19:47:11.392Z,6.33
2018-07-25T19:49:46.105Z,6.67
2018-07-25T19:52:21.150Z,13.40
2018-07-25T19:54:57.225Z,11.57
2018-07-25T19:57:35.395Z,23.45
2018-07-25T20:00:16.379Z,9.03
2018-07-25T20:02:44.984Z,10.05
2018-07-25T20:05:19.840Z,7.05
2018-07-25T20:07:54.878Z,6.05
2018-07-25T20:10:29.681Z,6.30
2018-07-25T20:13:04.409Z,5.78
2018-07-25T20:15:44.626Z,6.17
2018-07-25T20:18:19.483Z,7.35
2018-07-25T20:20:54.012Z,6.95
2018-07-25T20:23:32.764Z,6.08
2018-07-25T20:26:10.299Z,5.70
2018-07-25T20:28:45.043Z,5.60
2018-07-25T20:31:20.700Z,6.67
2018-07-25T20:33:55.364Z,7.25
2018-07-25T20:36:30.119Z,7.37
2018-07-25T20:39:13.558Z,6.95
2018-07-25T20:41:49.263Z,7.30
2018-07-25T20:44:24.215Z,13.90
2018-07-25T20:46:59.785Z,9.78
2018-07-25T20:49:35.006Z,12.37
2018-07-25T20:52:10.067Z,7.30
2018-07-25T20:54:44.969Z,9.38
2018-07-25T20:57:19.580Z,9.03
2018-07-25T20:59:55.494Z,7.85
2018-07-25T21:02:30.321Z,12.05
2018-07-25T21:05:06.517Z,19.67
2018-07-25T21:07:41.956Z,11.55
2018-07-25T21:10:16.691Z,9.13
2018-07-25T21:12:51.295Z,10.58
2018-07-25T21:15:26.227Z,8.78
2018-07-25T21:18:00.864Z,9.75
2018-07-25T21:20:35.537Z,10.85
2018-07-25T21:23:10.350Z,8.50
2018-07-25T21:25:45.789Z,9.48
2018-07-25T21:28:20.914Z,9.93
2018-07-25T21:30:55.438Z,9.55
2018-07-25T21:33:30.196Z,9.65
2018-07-25T21:36:05.953Z,9.85
2018-07-25T21:38:40.660Z,8.65
2018-07-25T21:41:17.227Z,10.30
2018-07-25T21:43:53.379Z,9.45
2018-07-25T21:46:28.209Z,10.55
2018-07-25T21:49:03.265Z,7.30
2018-07-25T21:51:38.016Z,7.85
2018-07-25T21:54:14.660Z,8.05
2018-07-25T21:56:49.274Z,7.80
2018-07-25T21:59:23.981Z,7.62
2018-07-25T22:01:58.721Z,7.80
2018-07-25T22:04:33.345Z,8.98
2018-07-25T22:07:09.341Z,7.55
2018-07-25T22:09:44.535Z,8.43
2018-07-25T22:12:19.392Z,8.25
2018-07-25T22:14:53.999Z,9.90
2018-07-25T22:17:28.531Z,7.33
2018-07-25T22:20:03.868Z,8.48
2018-07-25T22:22:49.012Z,12.68
2018-07-25T22:25:30.238Z,10.55
2018-07-25T22:28:05.106Z,10.75
2018-07-25T22:30:39.814Z,9.90
2018-07-25T22:33:14.443Z,12.70
2018-07-25T22:35:49.606Z,8.80
2018-07-25T22:38:30.884Z,12.88
2018-07-25T22:41:06.708Z,11.33
2018-07-25T22:43:42.049Z,12.00
2018-07-25T22:46:21.765Z,12.35
2018-07-25T22:49:02.429Z,8.53
2018-07-25T22:51:44.436Z,10.58
2018-07-25T22:54:21.447Z,8.68
2018-07-25T22:56:57.003Z,8.18
2018-07-25T22:59:38.832Z,9.93
2018-07-25T23:02:19.442Z,10.25
2018-07-25T23:05:00.720Z,11.25
2018-07-25T23:07:41.882Z,11.63
2018-07-25T23:10:27.938Z,7.15
2018-07-25T23:13:03.282Z,11.85
2018-07-25T23:15:43.571Z,16.27
2018-07-25T23:18:24.610Z,8.05
2018-07-25T23:21:13.220Z,8.75
2018-07-25T23:23:52.691Z,6.95
2018-07-25T23:26:40.665Z,9.15
2018-07-25T23:29:26.267Z,11.33
2018-07-25T23:32:12.512Z,11.20
2018-07-25T23:34:54.318Z,7.60
2018-07-25T23:37:34.849Z,9.90
2018-07-25T23:40:12.477Z,11.83
2018-07-25T23:42:55.694Z,19.32
2018-07-25T23:45:39.592Z,14.10
2018-07-25T23:48:14.460Z,14.23
2018-07-25T23:50:58.184Z,8.80
2018-07-25T23:53:43.732Z,14.10
2018-07-25T23:56:30.304Z,11.55
2018-07-25T23:59:20.902Z,10.68
